Powersville, Missouri
Current Conditions -  °F | °C
As of 4:30 PM on Monday 24 Nov 2014 (Local Time) from KTVK Reporting Station
Light Snow Light Snow  
Wind Chill: -9°   Ceiling: 2500
Heat Index: -2°   Visibility: 10mi
Dew Point: -5°   Wind: 18mph
Humidity: 80%   Direction: 260°W
Pressure: 29.81"   Gusts: 22mph
Location:  40.55°N, 93.3°W
Report Text: KTVK 242230Z AUTO 26016G19KT 10SM -SN FEW001 OVC025 M02/M05 A2981 RMK AO2
Loading
Personal Weather Stations






























Interactive Weather Map New forecast layout! Learn more

10-Day Weather Forecast

Advertisements
Track Severe Weather on mobile